• Join FlightAware (Why Join?)
  • Login
  • US Flag 
06:42PM EDT


 

Airport Tracker/Info


-or-


 

Live Flight TrackerFlight Track Log ✈ N654DL ✈ 02-May-2013 ✈ KDTW - KDCA

Flight Track Log - Related Links

Times and Time Zones

All times are in EDT time to prevent confusion due to time zone crossing. See the N654DL flight status page for this flight to view local times or setup timezone preferences in your user account.

Time Position Orientation Groundspeed Altitude Reporting Facility
EDT Latitude Longitude Course Direction KTS MPH feet Rate Location/Type
10:31AM 42.2017 -83.3583 114° Southeast 168 193 1,500  Level Cleveland Center
10:32AM 42.1069 -83.3878 193° South 261 300 6,100 2,940 Climbing Cleveland Center
10:33AM 42.0297 -83.3953 184° South 264 304 9,600 1,740 Climbing Cleveland Center
10:34AM 42.1398 -82.8872 97° East  Level FlightAware Approximate
10:35AM 42.1147 -82.7320 98° East  Level FlightAware Approximate
10:35AM 42.0089 -83.3050 107° East 266 306 10,000  Level Cleveland Center
10:36AM 42.0971 -82.5747 114° Southeast  Level FlightAware Approximate
10:36AM 42.0219 -83.1911 81° East 279 321 10,000  Level Cleveland Center
10:37AM 42.0331 -83.0711 83° East 292 336 10,000 1,080 Level Cleveland Center
10:38AM 42.0417 -82.9569 84° East 305 351 12,200 2,580 Climbing Cleveland Center
10:40AM 42.0653 -82.7061 83° East 329 379 17,800 2,640 Climbing Cleveland Center
10:41AM 42.0803 -82.5667 82° East 353 406 20,200 2,340 Climbing Cleveland Center
10:42AM 42.0786 -82.4267 91° East 365 420 22,500 2,160 Climbing Cleveland Center
10:43AM 42.0558 -82.2806 102° East 377 434 24,600 2,100 Climbing Cleveland Center
10:44AM 42.0331 -82.1206 101° East 395 455 26,800 1,800 Climbing Cleveland Center
10:45AM 41.9697 -82.0158 129° Southeast 405 466 28,300 1,440 Climbing Cleveland Center
10:46AM 41.8750 -81.9272 145° Southeast 405 466 29,700 900 Climbing Cleveland Center
10:47AM 41.7739 -81.8278 144° Southeast 436 502 30,200 600 Climbing Cleveland Center
10:48AM 41.6708 -81.7283 144° Southeast 460 529 31,000 360 Climbing Cleveland Center
10:49AM 41.5633 -81.6267 145° Southeast 467 537 31,000  Level Cleveland Center
10:50AM 41.4475 -81.5167 145° Southeast 467 537 31,000  Level Cleveland Center
10:51AM 41.3483 -81.4211 144° Southeast 456 525 31,000  Level Cleveland Center
10:52AM 41.2406 -81.3258 146° Southeast 461 531 31,000  Level Cleveland Center
10:53AM 41.1325 -81.2392 149° Southeast 461 531 31,000  Level Cleveland Center
10:54AM 41.0331 -81.1583 148° Southeast 456 525 31,000  Level Cleveland Center
10:55AM 40.9228 -81.0722 149° Southeast 456 525 31,000  Level Cleveland Center
10:56AM 40.7981 -81.0056 158° South 456 525 31,000  Level Cleveland Center
10:57AM 40.6731 -80.9744 169° South 450 518 31,000  Level Cleveland Center
10:58AM 40.5481 -80.9439 169° South 450 518 31,000  Level Cleveland Center
10:59AM 40.4211 -80.9131 170° South 455 524 31,000  Level Cleveland Center
11:00AM 40.2961 -80.8825 169° South 455 524 31,000  Level Cleveland Center
11:01AM 40.1711 -80.8519 169° South 460 529 31,000  Level Cleveland Center
11:02AM 40.0481 -80.8217 169° South 460 529 31,000  Level Cleveland Center
11:03AM 39.9483 -80.7239 143° Southeast 446 513 31,000  Level Cleveland Center
11:04AM 39.8692 -80.6100 132° Southeast 446 513 31,000  Level Cleveland Center
11:05AM 39.7836 -80.4886 133° Southeast 451 519 31,000  Level Cleveland Center
11:06AM 39.6981 -80.3700 133° Southeast 451 519 31,000  Level Cleveland Center
11:07AM 39.6103 -80.2489 133° Southeast 457 526 31,000  Level Cleveland Center
11:07AM 39.5575 -80.1836 136° Southeast 456 525 31,000  Level Washington Center
11:08AM 39.4822 -80.0767 132° Southeast 444 511 31,000  Level Washington Center
11:09AM 39.3950 -79.9586 134° Southeast 444 511 31,000  Level Washington Center
11:10AM 39.3094 -79.8381 133° Southeast 454 522 31,000 -300 Level Washington Center
11:11AM 39.2875 -79.6892 101° East 445 512 30,500 -1,080 Descending Washington Center
11:12AM 39.2744 -79.5250 96° East 450 518 28,900 -1,080 Descending Washington Center
11:13AM 39.2608 -79.3606 96° East 455 524 28,400 -840 Descending Washington Center
11:14AM 39.2433 -79.1828 97° East 455 524 27,300 -1,440 Descending Washington Center
11:15AM 39.2308 -79.0375 96° East 437 503 25,500 -1,680 Descending Washington Center
11:16AM 39.2203 -78.8978 96° East 413 475 24,000 -1,380 Descending Washington Center
11:17AM 39.2050 -78.7656 98° East 389 448 22,800 -1,560 Descending Washington Center
11:18AM 39.1919 -78.6311 97° East 378 435 21,000 -1,920 Descending Washington Center
11:19AM 39.1786 -78.4967 97° East 373 429 19,000 -1,980 Descending Washington Center
11:20AM 39.1628 -78.3675 99° East 373 429 17,000 -1,440 Descending Washington Center
11:21AM 39.1364 -78.2489 106° East 360 414 16,100 -1,020 Descending Washington Center
11:22AM 39.1056 -78.1328 109° East 347 399 15,100 -1,020 Descending Washington Center
11:23AM 39.0764 -78.0194 108° East 340 391 14,100 -1,080 Descending Washington Center
11:24AM 39.0475 -77.9061 108° East 334 384 13,000 -1,260 Descending Washington Center
11:25AM 39.0203 -77.8011 108° East 322 371 11,600 -1,380 Descending Washington Center
11:26AM 38.9950 -77.6989 108° East 312 359 10,400 -960 Descending Washington Center
11:27AM 38.9694 -77.6075 110° East 280 322 9,800 -720 Descending Washington Center
11:28AM 38.9333 -77.5167 117° Southeast 260 299 8,900 -1,020 Descending Potomac TRACON
11:29AM 38.9000 -77.4333 117° Southeast 254 292 7,900 -1,140 Descending Potomac TRACON
11:30AM 38.8667 -77.3667 123° Southeast 243 280 6,800 -960 Descending Potomac TRACON
11:31AM 38.8333 -77.2833 117° Southeast 239 275 6,000 -420 Descending Potomac TRACON
11:32AM 38.8000 -77.2167 123° Southeast 238 274 6,000 -600 Level Potomac TRACON
11:33AM 38.7833 -77.1500 108° East 212 244 4,800 -1,320 Descending Potomac TRACON
11:34AM 38.7333 -77.1167 153° Southeast 188 216 3,500 -1,500 Descending Potomac TRACON